Time;durP1;ratioP1;P1;durP2;ratioP2;P2;SDS_P1;SDS_P2;PMS_P1;PMS_P2;Temp;Humidity;BMP_temperature;BMP_pressure;BME280_temperature;BME280_humidity;BME280_pressure;Samples;Min_cycle;Max_cycle;Signal;HPM_P1;HPM_P2
2021/05/13 00:00:32;;;;;;;5.45;2.40;;;;;;;16.07;46.03;98641.45;232676;1167;114803;-67
2021/05/13 00:05:47;;;;;;;2.15;2.05;;;;;;;15.95;46.43;98646.50;232328;1174;115991;-67
2021/05/13 00:10:51;;;;;;;2.57;2.20;;;;;;;15.84;46.37;98645.91;232736;1174;115015;-65
2021/05/13 00:15:55;;;;;;;5.93;2.77;;;;;;;15.71;46.56;98639.39;232667;1174;115087;-67
2021/05/13 00:21:00;;;;;;;3.40;2.68;;;;;;;15.60;46.57;98637.96;232938;1172;115375;-67
2021/05/13 00:26:04;;;;;;;9.03;2.38;;;;;;;15.46;46.76;98632.53;233929;1174;114934;-67
2021/05/13 00:31:08;;;;;;;4.57;2.67;;;;;;;15.35;47.27;98632.97;232728;1174;115884;-66
2021/05/13 00:36:12;;;;;;;3.47;2.27;;;;;;;15.21;47.32;98634.81;232871;1174;115139;-67
2021/05/13 00:41:14;;;;;;;2.53;2.33;;;;;;;15.08;47.23;98634.45;232963;1174;115478;-67
2021/05/13 00:46:18;;;;;;;6.13;2.95;;;;;;;14.92;47.85;98637.66;232566;1174;115230;-68
2021/05/13 00:51:23;;;;;;;4.47;2.43;;;;;;;14.81;47.63;98636.98;232531;1170;115283;-67
2021/05/13 00:56:30;;;;;;;2.80;2.37;;;;;;;14.75;47.85;98630.08;233646;1174;115390;-67
2021/05/13 01:06:52;;;;;;;4.95;2.03;;;;;;;14.59;48.42;98634.06;233700;1174;114662;-68
2021/05/13 01:12:08;;;;;;;6.75;1.85;;;;;;;14.61;48.22;98629.21;233373;1174;115959;-67
2021/05/13 01:22:18;;;;;;;3.67;2.13;;;;;;;14.66;48.22;98608.48;235826;1174;106549;-66
2021/05/13 01:27:22;;;;;;;1.90;1.65;;;;;;;14.70;48.07;98600.64;235120;1174;114845;-66
2021/05/13 01:32:26;;;;;;;4.03;1.23;;;;;;;14.70;48.30;98597.95;234489;1174;114940;-66
2021/05/13 01:37:29;;;;;;;3.48;2.03;;;;;;;14.70;48.35;98597.95;233992;1174;115455;-65
2021/05/13 01:42:32;;;;;;;5.95;1.78;;;;;;;14.69;48.29;98589.11;233003;1174;114505;-66
2021/05/13 01:47:36;;;;;;;2.15;1.58;;;;;;;14.66;48.52;98591.60;233161;1174;115042;-67
2021/05/13 01:52:40;;;;;;;3.53;1.80;;;;;;;14.62;47.95;98587.89;234480;1174;115392;-68
2021/05/13 01:57:43;;;;;;;2.75;2.15;;;;;;;14.60;48.30;98593.55;232814;1174;115470;-68
2021/05/13 02:02:48;;;;;;;1.65;1.43;;;;;;;14.54;49.27;98583.17;232580;1174;118005;-68
2021/05/13 02:07:53;;;;;;;;;;;;;;;14.46;49.20;98577.35;233563;1174;215939;-68
2021/05/13 02:12:57;;;;;;;6.45;2.25;;;;;;;14.34;50.10;98579.64;233673;1174;103101;-68
2021/05/13 02:18:00;;;;;;;5.07;1.70;;;;;;;14.23;50.38;98585.40;232647;1174;115255;-68
2021/05/13 02:23:03;;;;;;;1.60;1.50;;;;;;;14.06;50.70;98583.20;233288;1174;114460;-68
2021/05/13 02:28:07;;;;;;;13.80;1.93;;;;;;;13.92;50.92;98575.03;232621;1171;115433;-68
2021/05/13 02:33:12;;;;;;;1.75;1.63;;;;;;;13.82;52.25;98567.89;233186;1174;115550;-68
2021/05/13 02:38:16;;;;;;;3.58;2.03;;;;;;;13.80;52.10;98572.73;233047;1174;116377;-68
2021/05/13 02:43:20;;;;;;;1.73;1.45;;;;;;;13.75;52.57;98564.77;232753;1174;116105;-66
2021/05/13 02:48:24;;;;;;;5.90;1.70;;;;;;;13.72;53.35;98570.69;232782;1174;114999;-68
2021/05/13 02:53:26;;;;;;;11.33;1.70;;;;;;;13.66;52.92;98562.98;233332;1174;114554;-69
2021/05/13 02:58:30;;;;;;;6.80;2.40;;;;;;;13.55;52.95;98558.80;232796;1174;115335;-69
2021/05/13 03:03:34;;;;;;;8.15;1.88;;;;;;;13.45;53.42;98552.45;232583;1174;116043;-71
2021/05/13 03:08:37;;;;;;;1.65;1.35;;;;;;;13.34;54.11;98564.34;233365;1174;114690;-69
2021/05/13 03:13:43;;;;;;;2.10;2.00;;;;;;;13.31;54.37;98562.23;233623;1174;115395;-69
2021/05/13 03:18:55;;;;;;;6.00;2.00;;;;;;;13.30;54.92;98560.63;235101;1173;115675;-70
2021/05/13 03:29:04;;;;;;;1.88;1.48;;;;;;;13.49;54.10;98547.33;234758;1174;115512;-68
2021/05/13 03:34:08;;;;;;;2.08;1.80;;;;;;;13.49;54.61;98542.78;235104;1174;114796;-67
2021/05/13 03:39:11;;;;;;;4.57;1.90;;;;;;;13.56;54.54;98552.36;234696;1174;114897;-68
2021/05/13 03:44:14;;;;;;;1.60;1.40;;;;;;;14.03;53.41;98543.57;234908;1174;114541;-66
2021/05/13 03:49:18;;;;;;;2.08;1.43;;;;;;;14.46;53.65;98539.81;234137;1174;114769;-67
2021/05/13 03:54:22;;;;;;;2.80;1.55;;;;;;;14.50;52.70;98532.00;232580;1174;115261;-67
2021/05/13 03:59:27;;;;;;;1.80;1.20;;;;;;;14.60;51.71;98531.86;232854;1174;115239;-67
2021/05/13 04:04:31;;;;;;;1.70;1.60;;;;;;;14.68;51.75;98519.66;233061;1174;115794;-67
2021/05/13 04:09:35;;;;;;;2.83;1.75;;;;;;;14.91;51.13;98520.67;232790;1175;115975;-67
2021/05/13 04:14:39;;;;;;;1.63;1.40;;;;;;;15.88;50.50;98517.13;232718;1175;116787;-67
2021/05/13 04:19:44;;;;;;;3.53;1.43;;;;;;;17.23;49.04;98510.88;233078;1176;116698;-67
2021/05/13 04:24:47;;;;;;;5.83;1.78;;;;;;;17.96;47.50;98507.61;232677;1171;115560;-67
2021/05/13 04:29:51;;;;;;;1.13;1.03;;;;;;;17.48;47.55;98508.33;232784;1174;115976;-66
2021/05/13 04:34:55;;;;;;;2.40;1.50;;;;;;;17.04;47.30;98503.81;232894;1167;115807;-67
2021/05/13 04:39:59;;;;;;;4.77;1.30;;;;;;;16.85;47.36;98495.11;232732;1174;117257;-67
2021/05/13 04:45:04;;;;;;;2.13;1.47;;;;;;;17.71;46.59;98500.23;232613;1174;115301;-67
2021/05/13 04:50:09;;;;;;;2.15;1.40;;;;;;;17.96;46.01;98513.01;232748;1174;115657;-67
2021/05/13 04:55:13;;;;;;;1.53;1.43;;;;;;;18.64;45.17;98511.58;232526;1174;114815;-68
2021/05/13 05:00:17;;;;;;;1.23;1.23;;;;;;;19.07;44.54;98498.03;232705;1167;116342;-68
2021/05/13 05:05:21;;;;;;;3.30;1.10;;;;;;;19.68;43.24;98495.19;234288;1174;115453;-67
2021/05/13 05:10:23;;;;;;;9.28;2.25;;;;;;;23.22;38.94;98488.61;233096;1176;116389;-67
2021/05/13 05:15:28;;;;;;;9.20;1.50;;;;;;;27.03;35.70;98484.63;232704;1174;115866;-68
2021/05/13 05:20:31;;;;;;;1.50;1.40;;;;;;;29.73;32.11;98488.96;233354;1174;115819;-68
2021/05/13 05:25:34;;;;;;;5.20;2.05;;;;;;;31.93;29.32;98492.03;232800;1174;116407;-67
2021/05/13 05:30:38;;;;;;;2.83;1.87;;;;;;;33.07;27.20;98492.36;233047;1174;115397;-67
2021/05/13 05:35:40;;;;;;;;;;;;;;;33.75;25.45;98491.38;233209;1174;115878;-68
2021/05/13 05:40:46;;;;;;;3.93;1.30;;;;;;;34.42;24.19;98486.69;234700;1174;103020;-69
2021/05/13 05:45:49;;;;;;;2.80;1.33;;;;;;;35.08;23.48;98489.30;233560;1174;115321;-69
2021/05/13 05:50:52;;;;;;;0.97;0.93;;;;;;;36.30;21.60;98490.74;233349;1176;115464;-70
2021/05/13 05:55:55;;;;;;;;;;;;;;;36.94;21.73;98482.62;232433;1174;114904;-70
2021/05/13 06:00:58;;;;;;;1.95;0.90;;;;;;;36.05;21.37;98485.05;233910;1174;103088;-70
2021/05/13 06:06:00;;;;;;;5.98;1.90;;;;;;;35.28;21.13;98486.47;232616;1174;116089;-70
2021/05/13 06:11:04;;;;;;;3.60;1.50;;;;;;;34.72;21.06;98475.41;232632;1174;115021;-69
2021/05/13 06:16:07;;;;;;;6.05;1.88;;;;;;;34.78;21.11;98478.45;232502;1175;115232;-69
2021/05/13 06:21:10;;;;;;;5.10;1.93;;;;;;;33.13;22.20;98473.36;232427;1174;115309;-69
2021/05/13 06:26:27;;;;;;;;;;;;;;;30.92;23.62;98471.83;232439;1174;115737;-69
2021/05/13 06:31:42;;;;;;;3.73;2.07;;;;;;;28.83;24.48;98469.96;233828;1174;103140;-70
2021/05/13 06:36:46;;;;;;;8.60;1.93;;;;;;;27.99;25.42;98457.34;233103;1174;114940;-72
2021/05/13 06:41:49;;;;;;;9.50;2.47;;;;;;;27.16;26.25;98461.33;232416;1174;115154;-70
2021/05/13 06:46:51;;;;;;;5.25;2.40;;;;;;;26.24;27.21;98456.65;233283;1174;115460;-70
2021/05/13 06:51:58;;;;;;;5.78;2.53;;;;;;;25.73;28.21;98446.13;232694;1174;115239;-70
2021/05/13 06:57:02;;;;;;;11.20;2.63;;;;;;;25.76;29.21;98442.67;233055;1174;116042;-70
2021/05/13 07:02:05;;;;;;;4.30;2.47;;;;;;;26.14;28.21;98453.39;233413;1174;115207;-70
2021/05/13 07:07:07;;;;;;;7.43;2.73;;;;;;;27.02;28.51;98444.77;232782;1174;115516;-71
2021/05/13 07:12:10;;;;;;;3.25;2.68;;;;;;;27.68;28.51;98431.31;233168;1174;116032;-70
2021/05/13 07:17:14;;;;;;;8.00;2.85;;;;;;;27.86;28.07;98431.42;233246;1174;115320;-68
2021/05/13 07:22:19;;;;;;;4.75;2.30;;;;;;;27.84;28.16;98420.84;235091;1174;115192;-69
2021/05/13 07:27:22;;;;;;;13.63;2.70;;;;;;;27.65;28.17;98419.16;235112;1174;117223;-69
2021/05/13 07:32:25;;;;;;;6.25;3.10;;;;;;;27.35;28.41;98415.76;234174;1174;115788;-69
2021/05/13 07:37:29;;;;;;;8.77;3.10;;;;;;;27.18;28.75;98422.66;232511;1174;116663;-69
2021/05/13 07:42:34;;;;;;;20.18;3.15;;;;;;;27.12;29.61;98414.00;232953;1174;115176;-68
2021/05/13 07:47:38;;;;;;;3.85;2.90;;;;;;;27.01;29.19;98421.30;232414;1174;115675;-68
2021/05/13 07:52:44;;;;;;;3.03;2.50;;;;;;;26.98;29.56;98415.80;232537;1174;115100;-69
2021/05/13 07:57:49;;;;;;;5.80;3.00;;;;;;;26.83;28.98;98412.11;232479;1174;115225;-69
2021/05/13 08:02:53;;;;;;;4.30;2.60;;;;;;;26.47;30.26;98400.78;232536;1174;115211;-68
2021/05/13 08:07:56;;;;;;;4.13;3.07;;;;;;;25.96;30.05;98403.21;233226;1174;115493;-67
2021/05/13 08:12:59;;;;;;;10.30;2.45;;;;;;;25.62;31.05;98396.83;232967;1174;117327;-68
2021/05/13 08:18:02;;;;;;;3.95;2.50;;;;;;;25.16;31.05;98385.16;232658;1174;116410;-68
2021/05/13 08:23:06;;;;;;;5.55;2.65;;;;;;;24.88;31.81;98400.98;232642;1174;115329;-69
2021/05/13 08:28:09;;;;;;;2.97;2.17;;;;;;;24.74;31.34;98393.35;232614;1174;115245;-69
2021/05/13 08:33:13;;;;;;;2.83;2.43;;;;;;;24.43;31.57;98386.92;232391;1174;116033;-69
2021/05/13 08:38:16;;;;;;;11.58;3.03;;;;;;;24.49;32.06;98387.39;232893;1174;116098;-69
2021/05/13 08:43:28;;;;;;;7.33;2.07;;;;;;;24.33;31.56;98387.48;232616;1174;115910;-69
2021/05/13 08:48:30;;;;;;;2.55;2.25;;;;;;;24.29;32.74;98383.89;232379;1174;115522;-67
2021/05/13 08:53:53;;;;;;;4.53;2.05;;;;;;;24.18;32.44;98371.95;232979;1167;115993;-67
2021/05/13 08:59:03;;;;;;;4.00;1.90;;;;;;;24.16;33.00;98368.80;232808;1174;115792;-67
2021/05/13 09:04:12;;;;;;;2.67;2.47;;;;;;;24.38;33.30;98376.31;233389;1174;116314;-67
2021/05/13 09:09:20;;;;;;;5.53;2.43;;;;;;;24.35;32.24;98371.58;234744;1174;115534;-68
2021/05/13 09:14:32;;;;;;;4.75;2.30;;;;;;;24.49;33.51;98374.56;232628;1174;115654;-68
2021/05/13 09:19:35;;;;;;;1.90;1.70;;;;;;;24.51;32.85;98364.10;235181;1174;115458;-68
2021/05/13 09:24:42;;;;;;;2.33;2.20;;;;;;;24.51;32.80;98361.38;235106;1174;114778;-68
2021/05/13 09:29:47;;;;;;;4.93;2.40;;;;;;;24.47;31.98;98357.80;234494;1167;115626;-67
2021/05/13 09:34:52;;;;;;;5.33;2.65;;;;;;;24.23;32.14;98346.38;233880;1174;115358;-68
2021/05/13 09:39:56;;;;;;;2.33;2.23;;;;;;;23.95;32.53;98347.38;232536;1174;116416;-67
2021/05/13 09:44:59;;;;;;;4.33;2.57;;;;;;;23.67;32.98;98344.83;234185;1174;116216;-67
2021/05/13 09:50:07;;;;;;;4.15;2.50;;;;;;;23.69;33.10;98339.03;233860;1176;116190;-67
2021/05/13 09:55:12;;;;;;;4.78;1.83;;;;;;;23.78;33.22;98337.70;233258;1174;115562;-66
2021/05/13 10:00:37;;;;;;;3.00;2.15;;;;;;;23.73;32.93;98339.91;232461;1174;115938;-68
2021/05/13 10:05:42;;;;;;;2.08;1.80;;;;;;;23.46;32.78;98326.07;232659;1174;117637;-67
2021/05/13 10:10:46;;;;;;;4.30;2.80;;;;;;;23.36;32.77;98337.48;232886;1171;116446;-67
2021/05/13 10:15:49;;;;;;;1.90;1.80;;;;;;;23.62;35.15;98326.05;232683;1174;117235;-69
2021/05/13 10:20:57;;;;;;;2.30;2.08;;;;;;;23.90;33.38;98317.72;233459;1174;115013;-70
2021/05/13 10:26:00;;;;;;;3.88;2.80;;;;;;;23.68;33.28;98319.20;233383;1174;117509;-70
2021/05/13 10:31:07;;;;;;;4.00;2.28;;;;;;;23.65;33.19;98319.12;232884;1174;117011;-68
2021/05/13 10:36:15;;;;;;;3.33;2.50;;;;;;;23.46;33.17;98314.41;233018;1175;116121;-71
2021/05/13 10:41:36;;;;;;;4.10;2.33;;;;;;;23.22;33.10;98309.19;232523;1174;116522;-70
2021/05/13 10:46:52;;;;;;;5.30;2.23;;;;;;;23.58;33.85;98306.14;232889;1174;115865;-68
2021/05/13 10:51:58;;;;;;;2.10;2.00;;;;;;;23.87;33.72;98301.30;233499;1174;116703;-68
2021/05/13 10:57:18;;;;;;;;;;;;;;;24.24;33.39;98302.45;233718;1174;117630;-69
2021/05/13 11:02:53;;;;;;;6.70;2.40;;;;;;;24.13;32.58;98304.99;234522;1174;103671;-68
2021/05/13 11:08:07;;;;;;;5.13;2.70;;;;;;;24.19;33.81;98289.92;232944;1174;116012;-68
2021/05/13 11:13:11;;;;;;;4.40;2.65;;;;;;;24.34;33.24;98279.34;233711;1174;115363;-69
2021/05/13 11:18:15;;;;;;;2.40;2.30;;;;;;;24.04;32.61;98284.57;235101;1174;115914;-68
2021/05/13 11:23:22;;;;;;;2.05;1.90;;;;;;;23.89;32.39;98278.03;235136;1174;115317;-68
2021/05/13 11:28:31;;;;;;;2.33;1.80;;;;;;;24.10;33.73;98272.25;233510;1174;116111;-70
2021/05/13 11:33:46;;;;;;;2.55;1.45;;;;;;;24.37;34.06;98271.24;232951;1175;116138;-67
2021/05/13 11:39:07;;;;;;;4.90;2.00;;;;;;;24.46;32.50;98269.05;234080;1174;115670;-67
2021/05/13 11:44:10;;;;;;;2.00;1.63;;;;;;;24.44;32.18;98274.10;234296;1174;116171;-68
2021/05/13 11:49:14;;;;;;;2.50;1.65;;;;;;;24.45;32.21;98267.50;233775;1174;115823;-69
2021/05/13 11:54:19;;;;;;;3.00;2.73;;;;;;;24.26;31.71;98259.35;233870;1175;116590;-67
2021/05/13 11:59:23;;;;;;;9.50;2.68;;;;;;;24.18;32.41;98255.67;233914;1174;117130;-67
2021/05/13 12:04:27;;;;;;;2.45;2.20;;;;;;;24.28;33.00;98267.95;232445;1174;117124;-68
2021/05/13 12:09:35;;;;;;;2.00;1.90;;;;;;;24.23;31.74;98256.53;232815;1175;116928;-68
2021/05/13 12:14:39;;;;;;;1.73;1.63;;;;;;;24.16;31.28;98260.69;232635;1176;116119;-67
2021/05/13 12:19:43;;;;;;;1.53;1.50;;;;;;;23.72;30.85;98252.05;232763;1175;116842;-68
2021/05/13 12:24:48;;;;;;;3.90;1.90;;;;;;;22.97;31.59;98238.70;232974;1174;116450;-68
2021/05/13 12:29:52;;;;;;;2.20;1.80;;;;;;;22.89;32.83;98242.41;232508;1167;117077;-66
2021/05/13 12:34:57;;;;;;;2.48;1.93;;;;;;;23.16;32.62;98237.98;232622;1174;116660;-67
2021/05/13 12:40:08;;;;;;;3.43;1.47;;;;;;;23.21;32.13;98237.72;234301;1174;115369;-68
2021/05/13 12:45:17;;;;;;;1.75;1.65;;;;;;;23.26;32.02;98236.63;233103;1174;115739;-67
2021/05/13 12:50:23;;;;;;;1.75;1.65;;;;;;;;;;233338;1174;117712;-67
2021/05/13 12:55:37;;;;;;;1.37;1.33;;;;;;;23.31;32.23;98236.36;235898;1174;103066;-69
2021/05/13 13:00:42;;;;;;;5.88;1.60;;;;;;;23.34;31.91;98236.44;232703;1174;201064;-70
2021/05/13 13:05:46;;;;;;;1.25;1.25;;;;;;;23.32;31.62;98224.34;234136;1174;116228;-68
2021/05/13 13:10:51;;;;;;;6.83;1.60;;;;;;;23.32;31.93;98221.62;233833;1174;115711;-69
2021/05/13 13:16:00;;;;;;;1.88;1.70;;;;;;;23.18;31.29;98216.67;233692;1174;115940;-67
2021/05/13 13:21:17;;;;;;;25.37;3.17;;;;;;;23.05;31.06;98215.98;234987;1174;114558;-69
2021/05/13 13:26:28;;;;;;;1.85;1.00;;;;;;;22.63;30.48;98223.88;235121;1175;114693;-70
2021/05/13 13:31:36;;;;;;;1.40;1.30;;;;;;;22.45;31.44;98206.36;234940;1174;115496;-69
2021/05/13 13:36:40;;;;;;;2.80;1.57;;;;;;;22.41;31.12;98200.05;234181;1174;116195;-69
2021/05/13 13:41:43;;;;;;;5.67;1.30;;;;;;;22.49;31.59;98202.59;233716;1174;115184;-69
2021/05/13 13:46:46;;;;;;;1.88;1.38;;;;;;;22.50;30.97;98206.89;232449;1174;115628;-68
2021/05/13 13:51:50;;;;;;;7.60;2.20;;;;;;;22.42;30.19;98199.70;234129;1174;117239;-68
2021/05/13 13:56:54;;;;;;;2.63;1.23;;;;;;;22.54;30.50;98204.27;233154;1174;115444;-68
2021/05/13 14:01:59;;;;;;;1.20;1.00;;;;;;;22.60;30.17;98196.66;234342;1174;115449;-69
2021/05/13 14:07:03;;;;;;;37.30;9.15;;;;;;;22.63;29.88;98195.92;235011;1174;115370;-69
2021/05/13 14:12:08;;;;;;;0.90;0.90;;;;;;;22.53;29.83;98199.98;233345;1174;115922;-68
2021/05/13 14:17:12;;;;;;;2.15;1.33;;;;;;;22.49;29.90;98193.66;232802;1174;121241;-68
2021/05/13 14:22:16;;;;;;;4.18;1.60;;;;;;;22.50;29.35;98193.31;232678;1174;117307;-68
2021/05/13 14:27:19;;;;;;;5.98;1.25;;;;;;;22.59;29.82;98195.08;232841;1174;116174;-67
2021/05/13 14:32:23;;;;;;;1.53;1.00;;;;;;;22.53;28.92;98191.83;232440;1174;115876;-68
2021/05/13 14:37:29;;;;;;;2.45;1.50;;;;;;;22.50;28.83;98193.31;232843;1174;115560;-67
2021/05/13 14:42:37;;;;;;;8.08;1.38;;;;;;;22.41;29.31;98197.33;232551;1174;115771;-68
2021/05/13 14:47:43;;;;;;;2.55;0.80;;;;;;;22.37;29.53;98185.59;232903;1173;116090;-66
2021/05/13 14:52:47;;;;;;;3.47;1.10;;;;;;;22.30;29.78;98183.52;233057;1174;115460;-67
2021/05/13 14:57:50;;;;;;;1.65;0.98;;;;;;;22.27;29.51;98181.49;233240;1174;115364;-67
2021/05/13 15:02:55;;;;;;;3.55;1.30;;;;;;;22.15;28.97;98178.84;232695;1174;116236;-67
2021/05/13 15:07:58;;;;;;;2.40;1.33;;;;;;;22.08;29.21;98175.94;232677;1176;117090;-67
2021/05/13 15:13:01;;;;;;;3.80;1.40;;;;;;;21.96;29.09;98173.28;233436;1174;117645;-67
2021/05/13 15:18:03;;;;;;;1.15;0.85;;;;;;;21.84;28.84;98180.33;234568;1174;116406;-67
2021/05/13 15:23:06;;;;;;;6.87;1.50;;;;;;;21.80;28.75;98170.52;235078;1174;114925;-67
2021/05/13 15:28:09;;;;;;;1.20;1.10;;;;;;;21.78;28.70;98179.00;234129;1171;114742;-66
2021/05/13 15:33:12;;;;;;;0.68;0.68;;;;;;;21.70;27.69;98165.61;234452;1170;117797;-66
2021/05/13 15:38:15;;;;;;;3.30;1.30;;;;;;;21.65;28.09;98169.36;235191;1174;114746;-67
2021/05/13 15:43:20;;;;;;;1.75;1.63;;;;;;;21.58;29.62;98163.73;234555;1174;115356;-67
2021/05/13 15:48:25;;;;;;;1.15;1.00;;;;;;;21.52;30.05;98148.83;232716;1176;115979;-66
2021/05/13 15:53:29;;;;;;;0.80;0.80;;;;;;;21.46;29.73;98156.42;232945;1174;116578;-66
2021/05/13 15:58:32;;;;;;;6.03;1.40;;;;;;;21.39;30.01;98155.45;233304;1176;116578;-67
2021/05/13 16:03:35;;;;;;;3.23;1.27;;;;;;;21.30;30.35;98146.66;232540;1176;116038;-67
2021/05/13 16:08:39;;;;;;;1.80;0.60;;;;;;;21.17;30.34;98148.57;233125;1175;115936;-68
2021/05/13 16:13:46;;;;;;;1.20;1.15;;;;;;;21.02;30.42;98152.80;232625;1175;117867;-66
2021/05/13 16:18:51;;;;;;;5.37;1.80;;;;;;;20.77;31.70;98157.47;232840;1173;115431;-66
2021/05/13 16:23:54;;;;;;;1.17;1.07;;;;;;;20.53;32.80;98162.07;234042;1174;115925;-67
2021/05/13 16:28:57;;;;;;;2.08;1.60;;;;;;;20.39;32.90;98168.63;232741;1170;115959;-67
2021/05/13 16:34:00;;;;;;;2.45;1.30;;;;;;;20.37;33.58;98165.46;232687;1174;117620;-66
2021/05/13 16:39:05;;;;;;;8.03;1.88;;;;;;;20.39;34.30;98167.83;233151;1174;115270;-68
2021/05/13 16:44:09;;;;;;;3.67;1.93;;;;;;;20.40;33.61;98158.59;232838;1174;115523;-67
2021/05/13 16:49:12;;;;;;;2.23;1.80;;;;;;;20.39;34.23;98159.71;233898;1174;115413;-65
2021/05/13 16:54:18;;;;;;;7.40;1.68;;;;;;;20.34;34.17;98157.98;232676;1174;115387;-65
2021/05/13 16:59:22;;;;;;;9.03;1.50;;;;;;;20.30;34.73;98158.98;234457;1174;116384;-66
2021/05/13 17:04:38;;;;;;;11.05;3.08;;;;;;;20.23;34.94;98159.53;232581;1174;115362;-67
2021/05/13 17:09:40;;;;;;;1.10;1.10;;;;;;;20.16;35.24;98154.70;232885;1171;115174;-66
2021/05/13 17:14:43;;;;;;;5.45;1.80;;;;;;;20.07;35.27;98167.52;232765;1174;114635;-67
2021/05/13 17:19:47;;;;;;;3.08;1.55;;;;;;;19.96;35.64;98166.36;234321;1174;116444;-66
2021/05/13 17:24:50;;;;;;;4.90;2.80;;;;;;;19.84;35.88;98171.75;233417;1174;114706;-67
2021/05/13 17:29:53;;;;;;;2.58;1.53;;;;;;;19.69;36.35;98173.15;232675;1174;115468;-66
2021/05/13 17:34:59;;;;;;;7.43;2.73;;;;;;;19.50;36.75;98170.94;235106;1174;114799;-65
2021/05/13 17:40:05;;;;;;;1.68;1.23;;;;;;;19.29;36.93;98172.81;234758;1174;115180;-65
2021/05/13 17:45:28;;;;;;;4.88;0.78;;;;;;;19.12;35.93;98170.25;234740;1176;115404;-66
2021/05/13 17:50:33;;;;;;;2.78;1.30;;;;;;;18.98;36.13;98173.19;232812;1170;115694;-64
2021/05/13 17:55:36;;;;;;;4.57;1.63;;;;;;;18.79;36.36;98179.03;232266;1175;116112;-64
2021/05/13 18:00:41;;;;;;;5.50;1.50;;;;;;;18.58;36.60;98171.98;233991;1177;114893;-63
2021/05/13 18:05:46;;;;;;;1.90;1.70;;;;;;;18.39;37.15;98173.15;232458;1175;114821;-65
2021/05/13 18:10:53;;;;;;;2.33;1.90;;;;;;;18.20;37.27;98171.96;232352;1177;203563;-64
2021/05/13 18:15:57;;;;;;;1.30;1.20;;;;;;;18.01;37.90;98175.04;233536;1177;114781;-64
2021/05/13 18:21:04;;;;;;;1.68;1.40;;;;;;;17.81;38.31;98177.28;232604;1174;114983;-66
2021/05/13 18:26:09;;;;;;;0.87;0.87;;;;;;;17.61;39.84;98188.70;233096;1174;115377;-64
2021/05/13 18:31:13;;;;;;;12.73;1.80;;;;;;;17.42;40.56;98185.55;232890;1175;115271;-64
2021/05/13 18:36:20;;;;;;;1.23;0.87;;;;;;;17.21;41.28;98192.64;232539;1174;115462;-64
2021/05/13 18:41:25;;;;;;;3.20;1.88;;;;;;;17.00;41.48;98195.94;232960;1174;115345;-64
2021/05/13 18:46:30;;;;;;;3.13;1.53;;;;;;;16.86;41.50;98206.03;232952;1174;115384;-64
2021/05/13 18:51:35;;;;;;;3.17;1.03;;;;;;;16.65;42.88;98202.33;232610;1167;114666;-64
2021/05/13 18:56:47;;;;;;;5.50;1.90;;;;;;;16.33;43.25;98206.13;232944;1174;115274;-64
2021/05/13 19:01:53;;;;;;;3.93;1.60;;;;;;;16.06;44.05;98209.78;232591;1170;115474;-64
2021/05/13 19:06:57;;;;;;;5.83;1.40;;;;;;;15.74;44.82;98213.52;233041;1174;115238;-64
2021/05/13 19:12:01;;;;;;;9.47;2.13;;;;;;;15.41;45.21;98216.39;232985;1174;115508;-65
2021/05/13 19:17:10;;;;;;;2.15;2.05;;;;;;;15.24;45.38;98208.20;232378;1174;115553;-66
2021/05/13 19:22:14;;;;;;;14.85;2.88;;;;;;;15.01;45.86;98203.84;233173;1174;114842;-64
2021/05/13 19:27:27;;;;;;;8.67;2.87;;;;;;;14.82;46.54;98202.09;233237;1174;115428;-64
2021/05/13 19:37:54;;;;;;;5.48;1.98;;;;;;;14.52;47.14;98194.65;235138;1170;114584;-64
2021/05/13 19:42:58;;;;;;;14.20;3.07;;;;;;;14.26;48.18;98207.70;235119;1174;115113;-64
2021/05/13 19:48:03;;;;;;;13.55;2.40;;;;;;;14.08;48.50;98211.23;233715;1174;114728;-64
2021/05/13 19:53:09;;;;;;;9.08;2.53;;;;;;;13.93;49.37;98220.33;233240;1174;115316;-64
2021/05/13 19:58:14;;;;;;;6.90;3.10;;;;;;;13.79;49.49;98214.13;235151;1174;115180;-63
2021/05/13 20:13:46;;;;;;;5.70;3.08;;;;;;;13.12;51.42;98214.29;233559;1176;115537;-63
2021/05/13 20:18:51;;;;;;;14.60;2.60;;;;;;;13.06;52.26;98209.29;232957;1174;116840;-66
2021/05/13 20:24:04;;;;;;;11.33;3.17;;;;;;;12.93;53.09;98209.98;232477;1170;116400;-66
2021/05/13 20:29:09;;;;;;;5.33;2.18;;;;;;;12.76;53.78;98219.28;233344;1176;117381;-66
2021/05/13 20:34:16;;;;;;;6.13;2.90;;;;;;;12.61;53.71;98210.63;232818;1174;115868;-66
2021/05/13 20:39:23;;;;;;;15.90;3.43;;;;;;;12.53;54.50;98200.59;232860;1174;207569;-66
2021/05/13 20:44:29;;;;;;;5.63;2.27;;;;;;;12.42;54.49;98203.36;233700;1174;119176;-63
2021/05/13 20:49:55;;;;;;;;;;;;;;;12.22;54.53;98195.56;233338;1174;116228;-63
2021/05/13 21:00:21;;;;;;;1.95;1.85;;;;;;;11.78;54.77;98196.48;233031;1174;116043;-66
2021/05/13 21:05:31;;;;;;;2.46;2.34;;;;;;;11.71;55.59;98195.17;232608;1170;115348;-66
2021/05/13 21:22:03;;;;;;;2.95;1.80;;;;;;;11.42;56.57;98187.13;234416;1174;114959;-63
2021/05/13 21:32:30;;;;;;;7.08;3.90;;;;;;;11.13;58.29;98193.17;233020;1175;114995;-67
2021/05/13 21:37:37;;;;;;;4.88;3.10;;;;;;;11.07;58.74;98188.94;232977;1174;115439;-69
2021/05/13 21:42:42;;;;;;;3.30;3.00;;;;;;;11.05;59.35;98191.08;232413;1174;115419;-67
2021/05/13 21:47:46;;;;;;;5.60;2.50;;;;;;;10.98;59.77;98198.61;235062;1174;114734;-64
2021/05/13 21:52:50;;;;;;;15.83;3.98;;;;;;;10.90;60.20;98203.70;235115;1174;115367;-64
2021/05/13 21:57:54;;;;;;;3.30;3.00;;;;;;;10.90;60.40;98207.17;234319;1171;115311;-68
2021/05/13 22:02:57;;;;;;;3.30;3.10;;;;;;;10.77;60.71;98200.55;233549;1174;115310;-66
2021/05/13 22:08:01;;;;;;;6.15;2.90;;;;;;;10.62;61.07;98205.16;232882;1174;115234;-66
2021/05/13 22:13:08;;;;;;;2.93;2.58;;;;;;;10.55;61.37;98204.64;233634;1172;114531;-67
2021/05/13 22:18:12;;;;;;;17.03;4.33;;;;;;;10.56;61.04;98203.57;233324;1174;116127;-67
2021/05/13 22:23:36;;;;;;;6.73;4.80;;;;;;;10.51;61.44;98206.24;232466;1174;115554;-66
2021/05/13 22:33:44;;;;;;;3.70;3.40;;;;;;;10.34;62.45;98203.91;232642;1174;115297;-66
2021/05/13 22:38:47;;;;;;;7.87;4.90;;;;;;;10.31;62.10;98204.45;233093;1174;115201;-66
2021/05/13 22:43:51;;;;;;;10.27;5.00;;;;;;;10.33;62.15;98205.77;232499;1174;115163;-66
2021/05/13 22:49:16;;;;;;;4.67;3.60;;;;;;;10.30;62.69;98200.19;232570;1174;114916;-67
2021/05/13 22:54:24;;;;;;;5.60;5.10;;;;;;;10.25;63.05;98200.19;232915;1174;115494;-67
2021/05/13 22:59:28;;;;;;;9.10;5.58;;;;;;;10.25;62.82;98186.88;232823;1174;114950;-66
2021/05/13 23:04:32;;;;;;;8.75;4.68;;;;;;;10.29;63.68;98193.27;232466;1174;115819;-65
2021/05/13 23:09:42;;;;;;;5.45;3.28;;;;;;;10.30;63.63;98189.53;233181;1174;114894;-66
2021/05/13 23:15:16;;;;;;;3.33;2.77;;;;;;;10.13;63.04;98189.78;232773;1174;115457;-67
2021/05/13 23:20:10;;;;;;;4.88;3.35;;;;;;;9.95;63.47;98177.05;233025;1174;116166;-68
2021/05/13 23:25:15;;;;;;;3.70;3.40;;;;;;;9.95;63.98;98185.03;233398;1174;116687;-66
2021/05/13 23:30:18;;;;;;;3.78;2.98;;;;;;;9.85;64.25;98177.84;234094;1174;115589;-64
2021/05/13 23:35:21;;;;;;;4.07;3.27;;;;;;;9.73;64.24;98180.00;234604;1174;115515;-64
2021/05/13 23:40:23;;;;;;;6.40;5.55;;;;;;;9.75;64.65;98181.34;233579;1174;115870;-66
2021/05/13 23:45:26;;;;;;;6.13;5.00;;;;;;;9.75;64.56;98186.66;234695;1174;116878;-63
2021/05/13 23:50:30;;;;;;;8.30;4.65;;;;;;;9.77;65.10;98202.36;235294;1176;115647;-64
2021/05/13 23:55:33;;;;;;;7.20;5.40;;;;;;;9.87;65.30;98206.86;234474;1175;116871;-63
